Time;durP1;ratioP1;P1;durP2;ratioP2;P2;SDS_P1;SDS_P2;PMS_P1;PMS_P2;Temp;Humidity;BMP_temperature;BMP_pressure;BME280_temperature;BME280_humidity;BME280_pressure;Samples;Min_cycle;Max_cycle;Signal;HPM_P1;HPM_P2
2021/07/12 00:02:23;;;;;;;6.55;5.95;;;23.20;67.80;;;;;;10451693;28;20123;-57
2021/07/12 00:07:24;;;;;;;6.95;5.88;;;23.20;67.90;;;;;;10433373;28;20116;-58
2021/07/12 00:12:24;;;;;;;6.10;5.60;;;23.20;67.80;;;;;;10451683;28;20549;-58
2021/07/12 00:17:25;;;;;;;6.43;5.88;;;23.20;67.80;;;;;;10433020;28;20037;-57
2021/07/12 00:22:26;;;;;;;6.50;5.90;;;23.20;67.80;;;;;;10449530;28;20440;-58
2021/07/12 00:27:27;;;;;;;5.40;4.90;;;23.20;67.90;;;;;;10450736;28;20029;-59
2021/07/12 00:32:28;;;;;;;7.93;6.47;;;23.20;67.90;;;;;;10451399;28;20411;-58
2021/07/12 00:37:28;;;;;;;6.90;6.30;;;23.10;68.00;;;;;;10434979;28;20125;-58
2021/07/12 00:42:29;;;;;;;6.60;6.00;;;23.10;67.80;;;;;;10450198;28;20455;-58
2021/07/12 00:47:30;;;;;;;6.00;5.40;;;23.10;67.80;;;;;;10449487;28;20393;-58
2021/07/12 00:52:31;;;;;;;7.45;6.75;;;23.10;67.90;;;;;;10450089;28;20043;-57
2021/07/12 00:57:31;;;;;;;7.30;6.63;;;23.10;67.90;;;;;;10431762;28;20086;-58
2021/07/12 01:02:32;;;;;;;7.07;6.38;;;23.10;67.80;;;;;;10431897;28;20033;-56
2021/07/12 01:07:33;;;;;;;8.93;6.50;;;23.10;67.80;;;;;;10449427;28;20047;-59
2021/07/12 01:12:47;;;;;;;6.85;6.25;;;23.10;67.80;;;;;;10449114;28;20044;-58
2021/07/12 01:18:23;;;;;;;6.85;6.22;;;23.10;67.90;;;;;;10432140;28;20056;-57
2021/07/12 01:24:11;;;;;;;7.43;6.72;;;23.10;67.90;;;;;;10434503;28;20049;-59
2021/07/12 01:30:04;;;;;;;7.13;6.53;;;23.10;67.80;;;;;;10449005;28;20033;-58
2021/07/12 01:35:35;;;;;;;7.13;6.53;;;23.10;67.80;;;;;;10447650;28;20045;-58
2021/07/12 01:40:47;;;;;;;6.82;6.22;;;23.10;67.80;;;;;;10448362;28;20156;-58
2021/07/12 01:46:02;;;;;;;6.63;6.07;;;23.10;67.80;;;;;;10448437;28;20029;-59
2021/07/12 01:51:08;;;;;;;7.18;6.32;;;23.10;67.70;;;;;;10431726;28;20620;-58
2021/07/12 01:56:31;;;;;;;6.65;6.05;;;23.00;67.70;;;;;;10434470;28;20100;-58
2021/07/12 02:01:35;;;;;;;7.57;6.88;;;23.10;67.70;;;;;;10436238;28;20422;-57
2021/07/12 02:06:41;;;;;;;7.28;6.68;;;23.00;67.70;;;;;;10426310;28;20074;-58
2021/07/12 02:11:44;;;;;;;7.05;6.45;;;23.00;67.70;;;;;;10456216;28;20032;-58
2021/07/12 02:16:49;;;;;;;7.15;6.55;;;23.00;67.70;;;;;;10438571;28;20089;-58
2021/07/12 02:21:52;;;;;;;7.50;6.72;;;23.00;67.70;;;;;;10461030;28;20045;-57
2021/07/12 02:26:55;;;;;;;7.35;6.75;;;23.00;67.70;;;;;;10429730;28;20398;-59
2021/07/12 02:31:57;;;;;;;7.38;6.68;;;23.00;67.70;;;;;;10440444;28;20072;-58
2021/07/12 02:36:58;;;;;;;7.13;6.53;;;23.00;67.70;;;;;;10437311;28;20056;-58
2021/07/12 02:42:01;;;;;;;6.80;6.20;;;23.00;67.60;;;;;;10437044;28;20033;-59
2021/07/12 02:47:02;;;;;;;7.30;6.55;;;23.00;67.60;;;;;;10454926;28;20037;-58
2021/07/12 02:52:35;;;;;;;7.53;6.82;;;23.00;67.60;;;;;;10454647;28;20543;-58
2021/07/12 02:57:36;;;;;;;7.30;6.63;;;23.00;67.60;;;;;;10451329;28;20045;-59
2021/07/12 03:02:37;;;;;;;7.78;7.05;;;22.90;67.50;;;;;;10436457;28;20033;-57
2021/07/12 03:07:54;;;;;;;7.40;6.70;;;22.90;67.50;;;;;;10454433;28;20029;-59
2021/07/12 03:13:01;;;;;;;7.50;6.75;;;22.90;67.40;;;;;;10453332;28;20112;-58
2021/07/12 03:18:06;;;;;;;7.13;6.43;;;22.90;67.50;;;;;;10436056;28;20029;-58
2021/07/12 03:23:12;;;;;;;7.60;6.95;;;22.90;67.40;;;;;;10426360;28;20058;-58
2021/07/12 03:28:14;;;;;;;8.57;7.88;;;22.90;67.30;;;;;;10435476;28;20043;-58
2021/07/12 03:33:16;;;;;;;7.30;6.70;;;22.90;67.30;;;;;;10422501;28;20029;-59
2021/07/12 03:38:20;;;;;;;7.72;6.93;;;22.90;67.30;;;;;;10440359;28;20045;-58
2021/07/12 03:43:21;;;;;;;7.85;7.15;;;22.90;67.20;;;;;;10441694;28;20457;-58
2021/07/12 03:48:54;;;;;;;8.68;7.88;;;22.80;67.20;;;;;;10459243;28;20044;-58
2021/07/12 03:53:55;;;;;;;8.68;7.88;;;22.90;67.20;;;;;;10391053;28;20400;-58
2021/07/12 03:58:56;;;;;;;7.90;7.10;;;22.90;67.10;;;;;;10458053;28;20127;-59
2021/07/12 04:03:57;;;;;;;8.05;7.25;;;22.90;67.00;;;;;;10440833;28;20430;-59
2021/07/12 04:08:58;;;;;;;8.23;7.53;;;22.80;67.00;;;;;;10440082;28;20112;-58
2021/07/12 04:13:59;;;;;;;7.78;7.07;;;22.90;67.10;;;;;;10440777;28;20021;-58
2021/07/12 04:19:00;;;;;;;7.80;7.10;;;22.80;67.00;;;;;;10457867;28;20025;-58
2021/07/12 04:24:02;;;;;;;7.55;6.95;;;22.80;67.00;;;;;;10461869;28;20469;-59
2021/07/12 04:29:03;;;;;;;7.25;6.65;;;22.80;66.90;;;;;;10456607;28;20133;-59
2021/07/12 04:34:04;;;;;;;8.13;7.38;;;22.80;67.00;;;;;;10457793;28;20033;-59
2021/07/12 04:39:04;;;;;;;8.43;7.70;;;22.80;66.90;;;;;;10456263;28;20198;-58
2021/07/12 04:44:05;;;;;;;8.13;7.25;;;22.80;67.10;;;;;;10438926;28;20519;-57
2021/07/12 04:49:06;;;;;;;8.57;7.38;;;22.80;67.00;;;;;;10455500;28;20033;-58
2021/07/12 04:54:07;;;;;;;13.77;7.97;;;22.80;66.90;;;;;;10446173;28;20039;-57
2021/07/12 04:59:10;;;;;;;9.35;8.43;;;22.90;67.80;;;;;;10454750;28;20461;-57
2021/07/12 05:04:10;;;;;;;9.68;8.20;;;22.90;67.10;;;;;;10455014;28;20037;-55
2021/07/12 05:09:12;;;;;;;14.20;8.88;;;22.90;67.40;;;;;;10456302;28;20037;-58
2021/07/12 05:14:13;;;;;;;9.68;8.77;;;22.90;67.50;;;;;;10455949;28;20029;-58
2021/07/12 05:19:14;;;;;;;9.88;8.68;;;22.90;67.70;;;;;;10456681;28;20033;-59
2021/07/12 05:24:15;;;;;;;14.35;7.65;;;22.90;67.80;;;;;;10445955;28;20029;-58
2021/07/12 05:29:17;;;;;;;15.30;7.88;;;22.90;67.60;;;;;;10455438;28;20108;-56
2021/07/12 05:34:18;;;;;;;13.98;9.15;;;22.90;67.70;;;;;;10454300;28;20036;-58
2021/07/12 05:39:18;;;;;;;17.45;8.95;;;22.90;67.60;;;;;;10454290;28;20051;-59
2021/07/12 05:44:19;;;;;;;23.63;10.25;;;22.90;67.50;;;;;;10455260;28;20032;-57
2021/07/12 05:49:20;;;;;;;28.75;10.63;;;22.90;67.60;;;;;;10438432;28;20039;-56
2021/07/12 05:54:20;;;;;;;21.40;9.45;;;22.90;67.80;;;;;;10446791;28;20378;-56
2021/07/12 05:59:21;;;;;;;25.33;10.43;;;22.90;67.90;;;;;;10447843;28;20520;-56
2021/07/12 06:04:22;;;;;;;28.27;10.30;;;22.90;68.20;;;;;;10448307;28;20466;-57
2021/07/12 06:09:22;;;;;;;19.88;10.27;;;23.00;68.30;;;;;;10448157;28;20083;-56
2021/07/12 06:14:23;;;;;;;18.98;9.68;;;23.00;68.10;;;;;;10447705;28;20120;-56
2021/07/12 06:19:24;;;;;;;14.45;9.27;;;22.90;68.00;;;;;;10431258;28;20123;-56
2021/07/12 06:24:24;;;;;;;16.40;9.10;;;22.90;68.00;;;;;;10436169;28;20481;-57
2021/07/12 06:29:25;;;;;;;12.52;8.50;;;22.90;68.00;;;;;;10447022;28;20404;-56
2021/07/12 06:34:26;;;;;;;12.85;8.50;;;22.90;68.10;;;;;;10446389;28;20037;-57
2021/07/12 06:39:27;;;;;;;11.65;9.10;;;22.90;68.00;;;;;;10446012;28;20396;-56
2021/07/12 06:44:28;;;;;;;11.63;8.48;;;22.90;68.10;;;;;;10447210;28;20040;-56
2021/07/12 06:49:28;;;;;;;13.88;9.20;;;22.90;68.10;;;;;;10437629;28;20032;-57
2021/07/12 06:54:29;;;;;;;15.90;9.63;;;22.90;68.10;;;;;;10453624;28;20542;-57
2021/07/12 06:59:30;;;;;;;11.38;8.30;;;22.90;68.10;;;;;;10433762;28;20033;-57
2021/07/12 07:04:30;;;;;;;9.07;7.57;;;22.90;68.10;;;;;;10453405;28;20107;-57
2021/07/12 07:09:31;;;;;;;12.23;9.82;;;22.90;68.00;;;;;;10453725;28;20041;-57
2021/07/12 07:14:32;;;;;;;11.57;9.57;;;22.90;67.70;;;;;;10453842;28;20025;-56
2021/07/12 07:19:33;;;;;;;11.52;8.88;;;22.90;67.80;;;;;;10454638;28;20123;-57
2021/07/12 07:24:33;;;;;;;11.82;9.38;;;22.90;68.00;;;;;;10444170;28;20047;-57
2021/07/12 07:29:34;;;;;;;10.07;8.32;;;22.90;68.00;;;;;;10453197;28;20033;-56
2021/07/12 07:34:35;;;;;;;10.85;9.70;;;22.90;67.90;;;;;;10453391;28;20044;-57
2021/07/12 07:39:36;;;;;;;11.13;10.00;;;22.90;68.00;;;;;;10452715;28;20100;-55
2021/07/12 07:44:37;;;;;;;10.30;8.13;;;22.90;67.90;;;;;;10450814;28;20470;-56
2021/07/12 07:49:37;;;;;;;10.40;9.35;;;23.00;68.00;;;;;;10452598;28;20104;-57
2021/07/12 07:54:38;;;;;;;8.90;8.05;;;23.00;68.00;;;;;;10452247;28;20358;-56
2021/07/12 07:59:39;;;;;;;9.30;8.35;;;23.00;68.00;;;;;;10451646;28;20097;-57
2021/07/12 08:04:39;;;;;;;9.65;8.65;;;23.00;68.00;;;;;;10451833;28;20055;-57
2021/07/12 08:09:40;;;;;;;10.07;8.48;;;23.00;68.00;;;;;;10451570;28;20033;-56
2021/07/12 08:14:41;;;;;;;8.68;7.78;;;23.00;68.00;;;;;;10451425;28;20136;-56
2021/07/12 08:19:41;;;;;;;8.77;6.78;;;23.00;68.50;;;;;;10455127;28;20039;-57
2021/07/12 08:24:42;;;;;;;9.43;7.85;;;23.00;67.90;;;;;;10438044;28;20447;-57
2021/07/12 08:29:43;;;;;;;8.73;7.45;;;23.10;67.90;;;;;;10450774;28;20040;-55
2021/07/12 08:34:43;;;;;;;8.57;7.53;;;23.10;67.90;;;;;;10450241;28;20052;-57
2021/07/12 08:39:44;;;;;;;8.80;7.82;;;23.10;67.80;;;;;;10450109;28;20132;-56
2021/07/12 08:44:45;;;;;;;8.82;8.02;;;23.10;67.80;;;;;;10450353;28;20032;-56
2021/07/12 08:49:46;;;;;;;13.45;9.55;;;23.10;67.70;;;;;;10449444;28;20124;-56
2021/07/12 08:54:47;;;;;;;13.68;8.48;;;23.10;68.20;;;;;;10444482;28;20091;-56
2021/07/12 08:59:48;;;;;;;11.88;8.73;;;23.10;68.40;;;;;;10448745;28;20170;-57
2021/07/12 09:04:52;;;;;;;8.55;7.57;;;23.20;68.30;;;;;;10448110;28;20086;-57
2021/07/12 09:10:04;;;;;;;10.95;8.48;;;23.20;68.40;;;;;;10445811;28;20048;-57
2021/07/12 09:15:16;;;;;;;13.18;7.97;;;23.20;68.40;;;;;;10430471;28;20112;-56
2021/07/12 09:20:28;;;;;;;11.65;8.63;;;23.30;68.90;;;;;;10440144;28;20037;-58
2021/07/12 09:25:30;;;;;;;12.32;8.77;;;23.30;68.80;;;;;;10448013;28;20035;-58
2021/07/12 09:30:34;;;;;;;12.20;8.15;;;23.30;68.80;;;;;;10447321;28;20086;-57
2021/07/12 09:35:34;;;;;;;9.45;7.85;;;23.30;68.90;;;;;;10447411;28;20076;-58
2021/07/12 09:40:35;;;;;;;7.88;7.10;;;23.30;69.00;;;;;;10426245;28;20114;-57
2021/07/12 09:45:38;;;;;;;8.57;7.78;;;23.30;69.20;;;;;;10447281;28;20060;-58
2021/07/12 09:50:49;;;;;;;9.55;8.60;;;23.30;68.70;;;;;;10446419;28;20060;-58
2021/07/12 09:55:50;;;;;;;10.80;7.35;;;23.30;68.70;;;;;;10437775;28;20029;-58
2021/07/12 10:00:51;;;;;;;8.35;7.38;;;23.30;68.70;;;;;;10447151;28;20056;-57
2021/07/12 10:05:54;;;;;;;7.80;7.10;;;23.40;68.90;;;;;;10446765;28;20455;-58
2021/07/12 10:10:56;;;;;;;6.90;6.20;;;23.40;68.90;;;;;;10445800;28;20033;-57
2021/07/12 10:15:57;;;;;;;9.30;7.65;;;23.40;68.80;;;;;;10447430;28;20473;-58
2021/07/12 10:20:58;;;;;;;8.02;6.97;;;23.40;68.60;;;;;;10453576;28;20064;-57
2021/07/12 10:25:59;;;;;;;7.30;6.60;;;23.40;68.40;;;;;;10449290;28;20381;-59
2021/07/12 10:31:14;;;;;;;7.88;7.15;;;23.40;68.40;;;;;;10444739;28;20472;-57
2021/07/12 10:36:39;;;;;;;8.98;7.05;;;23.40;67.90;;;;;;10445247;28;20029;-56
2021/07/12 10:41:49;;;;;;;8.38;6.90;;;23.50;68.30;;;;;;10461159;28;20428;-59
2021/07/12 10:46:52;;;;;;;8.15;6.68;;;23.50;68.40;;;;;;10444316;28;20017;-59
2021/07/12 10:51:53;;;;;;;9.02;6.13;;;23.50;68.10;;;;;;10460974;28;20037;-60
2021/07/12 10:56:58;;;;;;;9.43;6.57;;;23.60;68.50;;;;;;10461338;28;20107;-58
2021/07/12 11:02:02;;;;;;;9.43;7.53;;;23.60;68.30;;;;;;10443049;28;20033;-55
2021/07/12 11:07:10;;;;;;;8.55;7.25;;;23.60;68.60;;;;;;10459452;28;20060;-59
2021/07/12 11:12:50;;;;;;;13.32;7.53;;;23.60;68.80;;;;;;10459570;28;20037;-57
2021/07/12 11:18:10;;;;;;;7.45;6.65;;;23.70;68.60;;;;;;10458403;28;20167;-57
2021/07/12 11:23:48;;;;;;;;;;;23.70;68.80;;;;;;10465245;28;20037;-57
2021/07/12 11:28:51;;;;;;;11.48;7.28;;;23.60;68.70;;;;;;10458759;28;19917;-57
2021/07/12 11:33:57;;;;;;;9.40;7.00;;;23.60;68.50;;;;;;10459151;28;20029;-58
2021/07/12 11:38:58;;;;;;;7.22;6.55;;;23.70;68.90;;;;;;10459663;28;20052;-59
2021/07/12 11:44:14;;;;;;;11.07;7.25;;;23.70;68.20;;;;;;10458992;28;20393;-60
2021/07/12 11:49:21;;;;;;;12.55;6.78;;;23.60;67.90;;;;;;10459446;28;20500;-61
2021/07/12 11:54:25;;;;;;;9.80;6.50;;;23.60;68.00;;;;;;10458603;28;20489;-61
2021/07/12 11:59:29;;;;;;;11.18;6.32;;;23.60;68.10;;;;;;10457309;28;20037;-61
2021/07/12 12:04:47;;;;;;;9.55;7.20;;;23.60;68.30;;;;;;10457484;28;20031;-61
2021/07/12 12:10:02;;;;;;;9.10;7.03;;;23.60;68.30;;;;;;10457408;28;20083;-60
2021/07/12 12:15:20;;;;;;;7.70;6.85;;;23.60;67.90;;;;;;10440118;28;20053;-63
2021/07/12 12:20:43;;;;;;;7.68;6.88;;;23.60;68.20;;;;;;10466215;28;20020;-61
2021/07/12 12:25:45;;;;;;;8.90;7.28;;;23.50;68.30;;;;;;10454689;28;20716;-61
2021/07/12 12:30:46;;;;;;;7.78;7.00;;;23.60;68.30;;;;;;10456685;28;20086;-61
2021/07/12 12:35:46;;;;;;;7.70;7.00;;;23.60;68.10;;;;;;10439176;28;20477;-61
2021/07/12 12:41:17;;;;;;;7.25;6.55;;;23.60;68.20;;;;;;10439195;28;20045;-58
2021/07/12 12:46:22;;;;;;;8.50;7.03;;;23.50;68.10;;;;;;10456748;28;20032;-61
2021/07/12 12:51:33;;;;;;;8.35;7.50;;;23.50;68.20;;;;;;10456692;28;20025;-60
2021/07/12 12:56:37;;;;;;;7.93;7.13;;;23.50;68.20;;;;;;10456688;28;20477;-60
2021/07/12 13:01:44;;;;;;;7.65;6.95;;;23.50;68.90;;;;;;10456502;28;20065;-61
2021/07/12 13:06:55;;;;;;;7.32;6.63;;;23.50;68.20;;;;;;10438899;28;20025;-60
2021/07/12 13:12:19;;;;;;;7.40;6.68;;;23.40;68.20;;;;;;10455771;28;20025;-60
2021/07/12 13:17:25;;;;;;;8.48;7.70;;;23.50;68.20;;;;;;10438077;28;20040;-59
2021/07/12 13:22:29;;;;;;;8.70;7.90;;;23.50;68.30;;;;;;10462574;28;20053;-61
2021/07/12 13:27:35;;;;;;;8.63;7.72;;;23.50;68.00;;;;;;10455731;28;20115;-60
2021/07/12 13:32:37;;;;;;;8.50;7.72;;;23.50;68.20;;;;;;10455596;28;20032;-61
2021/07/12 13:37:39;;;;;;;7.70;6.95;;;23.40;67.90;;;;;;10455366;28;20037;-61
2021/07/12 13:42:40;;;;;;;8.52;7.72;;;23.50;68.20;;;;;;10455240;28;20032;-60
2021/07/12 13:47:41;;;;;;;7.90;7.18;;;23.50;68.20;;;;;;10455090;28;20031;-61
2021/07/12 13:52:43;;;;;;;7.55;6.75;;;23.40;68.10;;;;;;10455138;28;20055;-61
2021/07/12 13:57:48;;;;;;;7.82;7.13;;;23.50;68.90;;;;;;10463501;28;20500;-60
2021/07/12 14:02:49;;;;;;;8.25;7.40;;;23.50;68.40;;;;;;10463678;28;20550;-61
2021/07/12 14:07:50;;;;;;;7.35;6.35;;;23.50;68.40;;;;;;10463237;28;20037;-60
2021/07/12 14:12:52;;;;;;;8.35;7.50;;;23.40;68.30;;;;;;10462936;28;20377;-61
2021/07/12 14:17:52;;;;;;;7.57;6.88;;;23.40;68.20;;;;;;10462655;28;20017;-61
2021/07/12 14:22:53;;;;;;;8.52;7.63;;;23.40;68.20;;;;;;10469907;28;20036;-61
2021/07/12 14:27:54;;;;;;;7.80;7.05;;;23.40;68.40;;;;;;10462470;28;20108;-61
2021/07/12 14:32:54;;;;;;;8.00;6.78;;;23.50;68.10;;;;;;10462155;28;20422;-60
2021/07/12 14:37:55;;;;;;;9.80;7.43;;;23.40;68.10;;;;;;10462263;28;20053;-61
2021/07/12 14:42:56;;;;;;;8.05;7.13;;;23.40;68.10;;;;;;10461834;28;20115;-61
2021/07/12 14:47:57;;;;;;;7.30;6.60;;;23.40;68.10;;;;;;10444007;28;20040;-61
2021/07/12 14:52:57;;;;;;;7.35;6.65;;;23.40;68.30;;;;;;10443601;28;20470;-61
2021/07/12 14:57:58;;;;;;;6.90;6.30;;;23.40;68.30;;;;;;10461212;28;20445;-61
2021/07/12 15:03:00;;;;;;;7.40;6.70;;;23.40;68.30;;;;;;10461071;28;20366;-60
2021/07/12 15:08:01;;;;;;;7.93;7.22;;;23.40;68.30;;;;;;10460288;28;20158;-61
2021/07/12 15:13:01;;;;;;;9.23;8.40;;;23.50;68.90;;;;;;10460910;28;20109;-60
2021/07/12 15:18:03;;;;;;;8.05;7.25;;;23.50;68.40;;;;;;10460319;28;20053;-61
2021/07/12 15:23:03;;;;;;;7.22;6.63;;;23.50;68.30;;;;;;10467318;28;20025;-57
2021/07/12 15:28:04;;;;;;;11.80;7.55;;;23.40;68.30;;;;;;10459481;28;20029;-59
2021/07/12 15:33:05;;;;;;;8.52;7.57;;;23.50;68.40;;;;;;10459526;28;20104;-57
2021/07/12 15:38:06;;;;;;;10.20;8.48;;;23.50;68.40;;;;;;10458923;28;20494;-61
2021/07/12 15:43:06;;;;;;;11.25;8.75;;;23.50;69.00;;;;;;10434065;28;20036;-60
2021/07/12 15:48:07;;;;;;;14.40;8.48;;;23.60;69.60;;;;;;10456661;28;20083;-57
2021/07/12 15:53:09;;;;;;;21.88;9.52;;;23.60;69.80;;;;;;10440237;28;20075;-57
2021/07/12 15:58:10;;;;;;;10.50;9.00;;;23.60;69.80;;;;;;10458819;28;20041;-60
2021/07/12 16:03:11;;;;;;;12.40;9.63;;;23.70;71.20;;;;;;10458705;28;20433;-60
2021/07/12 16:08:12;;;;;;;13.43;9.25;;;23.80;71.90;;;;;;10436695;28;20047;-60
2021/07/12 16:13:13;;;;;;;14.30;9.75;;;23.80;70.80;;;;;;10440659;28;20032;-62
2021/07/12 16:18:15;;;;;;;15.75;9.52;;;23.80;71.10;;;;;;10456868;28;20044;-61
2021/07/12 16:23:16;;;;;;;12.45;9.95;;;23.80;71.80;;;;;;10458480;28;20044;-61
2021/07/12 16:28:18;;;;;;;19.38;9.82;;;23.80;71.40;;;;;;10457200;28;20040;-60
2021/07/12 16:33:26;;;;;;;15.75;9.00;;;23.90;71.60;;;;;;10457553;28;20037;-60
2021/07/12 16:38:27;;;;;;;15.37;9.70;;;23.90;71.30;;;;;;10439844;28;20047;-60
2021/07/12 16:43:30;;;;;;;14.52;10.60;;;23.90;71.60;;;;;;10455896;28;20061;-62
2021/07/12 16:48:32;;;;;;;16.55;10.45;;;23.80;71.10;;;;;;10455855;28;20025;-63
2021/07/12 16:53:33;;;;;;;15.02;9.52;;;23.80;71.10;;;;;;10446303;28;20494;-62
2021/07/12 16:58:35;;;;;;;22.05;9.13;;;23.80;71.20;;;;;;10455801;28;20085;-64
2021/07/12 17:03:37;;;;;;;11.70;9.77;;;23.80;71.40;;;;;;10456761;28;20393;-62
2021/07/12 17:08:38;;;;;;;23.65;10.70;;;23.80;71.40;;;;;;10456202;28;20508;-61
2021/07/12 17:13:38;;;;;;;13.68;9.13;;;23.80;71.30;;;;;;10456014;28;20104;-62
2021/07/12 17:18:39;;;;;;;16.13;9.77;;;23.80;71.30;;;;;;10455985;28;20086;-62
2021/07/12 17:23:40;;;;;;;15.35;9.80;;;23.80;71.40;;;;;;10462343;28;20110;-59
2021/07/12 17:28:40;;;;;;;14.80;9.82;;;23.80;71.50;;;;;;10435187;28;20039;-61
2021/07/12 17:33:43;;;;;;;12.60;10.27;;;23.80;71.10;;;;;;10455032;28;20112;-58
2021/07/12 17:38:45;;;;;;;15.90;9.98;;;23.80;71.10;;;;;;10454580;28;20132;-59
2021/07/12 17:43:47;;;;;;;12.18;9.48;;;23.80;71.20;;;;;;10437422;28;20474;-60
2021/07/12 17:48:48;;;;;;;11.25;10.02;;;23.70;71.00;;;;;;10436737;28;20032;-59
2021/07/12 17:53:49;;;;;;;11.88;10.32;;;23.70;71.00;;;;;;10454392;28;20040;-59
2021/07/12 17:58:50;;;;;;;11.23;10.13;;;23.70;70.90;;;;;;10454677;28;20079;-59
2021/07/12 18:03:50;;;;;;;11.40;10.30;;;23.70;71.10;;;;;;10453741;28;20048;-59
2021/07/12 18:08:55;;;;;;;10.98;9.98;;;23.70;71.40;;;;;;10437449;28;20032;-59
2021/07/12 18:13:56;;;;;;;10.63;9.63;;;23.70;70.60;;;;;;10441085;28;20033;-59
2021/07/12 18:18:56;;;;;;;9.85;8.95;;;23.70;70.60;;;;;;10428684;28;20389;-59
2021/07/12 18:23:57;;;;;;;10.65;9.65;;;23.70;70.60;;;;;;10448645;28;20065;-59
2021/07/12 18:28:59;;;;;;;10.57;9.32;;;23.70;70.60;;;;;;10444750;28;20040;-59
2021/07/12 18:34:00;;;;;;;10.48;9.57;;;23.70;70.50;;;;;;10447969;28;20463;-59
2021/07/12 18:39:04;;;;;;;10.05;9.15;;;23.70;70.50;;;;;;10429590;28;20163;-59
2021/07/12 18:44:06;;;;;;;9.95;9.05;;;23.70;70.50;;;;;;10453736;28;20048;-59
2021/07/12 18:49:07;;;;;;;10.07;8.60;;;23.60;70.40;;;;;;10454635;28;20521;-58
2021/07/12 18:54:09;;;;;;;10.55;9.52;;;23.60;71.00;;;;;;10453818;28;20029;-58
2021/07/12 18:59:09;;;;;;;10.10;9.20;;;23.60;71.40;;;;;;10441498;28;20033;-57
2021/07/12 19:04:11;;;;;;;9.82;8.95;;;23.60;71.30;;;;;;10452371;28;20039;-57
2021/07/12 19:09:11;;;;;;;11.70;9.18;;;23.60;71.40;;;;;;10435630;28;20036;-58
2021/07/12 19:14:14;;;;;;;10.88;9.88;;;23.60;71.40;;;;;;10453890;28;20032;-58
2021/07/12 19:19:15;;;;;;;11.60;10.45;;;23.60;71.30;;;;;;10453802;28;20132;-57
2021/07/12 19:24:17;;;;;;;10.50;9.50;;;23.60;72.20;;;;;;10456224;28;20130;-57
2021/07/12 19:29:18;;;;;;;9.68;8.77;;;23.70;71.80;;;;;;10442555;28;20037;-58
2021/07/12 19:34:18;;;;;;;10.88;9.88;;;23.70;71.70;;;;;;10459966;28;20478;-58
2021/07/12 19:39:19;;;;;;;15.13;9.68;;;23.70;71.70;;;;;;10459051;28;20041;-58
2021/07/12 19:44:20;;;;;;;10.57;9.55;;;23.70;71.70;;;;;;10459784;28;20376;-57
2021/07/12 19:49:20;;;;;;;9.27;8.48;;;23.70;71.60;;;;;;10458226;28;20493;-57
2021/07/12 19:54:21;;;;;;;9.65;8.73;;;23.60;71.50;;;;;;10458957;28;20112;-57
2021/07/12 19:59:22;;;;;;;9.10;8.18;;;23.60;71.50;;;;;;10456871;28;20108;-57
2021/07/12 20:04:22;;;;;;;9.48;8.65;;;23.60;71.40;;;;;;10457136;28;20033;-57
2021/07/12 20:09:23;;;;;;;9.77;8.80;;;23.60;71.40;;;;;;10457325;28;20041;-58
2021/07/12 20:14:24;;;;;;;8.93;8.18;;;23.60;71.30;;;;;;10457390;28;20035;-58
2021/07/12 20:19:24;;;;;;;8.73;7.95;;;23.60;71.30;;;;;;10457814;28;20172;-57
2021/07/12 20:24:25;;;;;;;9.18;8.38;;;23.60;71.30;;;;;;10455981;28;20025;-58
2021/07/12 20:29:26;;;;;;;9.63;8.80;;;23.60;71.30;;;;;;10458171;28;20043;-58
2021/07/12 20:34:26;;;;;;;9.18;8.38;;;23.60;71.20;;;;;;10439943;28;20131;-58
2021/07/12 20:39:28;;;;;;;9.02;8.32;;;23.60;71.10;;;;;;10456727;28;20438;-58
2021/07/12 20:44:29;;;;;;;9.82;8.93;;;23.60;71.00;;;;;;10457539;28;20032;-58
2021/07/12 20:49:29;;;;;;;8.88;8.18;;;23.60;71.00;;;;;;10457184;28;20496;-58
2021/07/12 20:54:30;;;;;;;9.32;8.43;;;23.50;70.90;;;;;;10441817;28;20415;-58
2021/07/12 20:59:31;;;;;;;9.48;8.68;;;23.50;70.90;;;;;;10456553;28;20489;-57
2021/07/12 21:04:31;;;;;;;9.68;8.88;;;23.50;70.80;;;;;;10455989;28;20537;-58
2021/07/12 21:09:32;;;;;;;9.05;8.25;;;23.50;70.80;;;;;;10456230;28;20044;-58
2021/07/12 21:14:33;;;;;;;9.15;8.35;;;23.50;71.30;;;;;;10456437;28;20116;-59
2021/07/12 21:19:33;;;;;;;9.38;8.52;;;23.50;70.60;;;;;;10437744;28;20127;-58
2021/07/12 21:24:34;;;;;;;9.38;8.57;;;23.50;70.70;;;;;;10456135;28;20167;-58
2021/07/12 21:29:36;;;;;;;10.10;9.20;;;23.50;70.60;;;;;;10455817;28;20032;-58
2021/07/12 21:34:37;;;;;;;9.40;8.60;;;23.40;70.50;;;;;;10455559;28;20094;-58
2021/07/12 21:39:37;;;;;;;9.77;8.95;;;23.50;70.50;;;;;;10455351;28;20485;-58
2021/07/12 21:44:38;;;;;;;9.75;8.85;;;23.40;70.40;;;;;;10456071;28;20370;-58
2021/07/12 21:49:39;;;;;;;9.00;8.30;;;23.50;70.40;;;;;;10455182;28;20113;-58
2021/07/12 21:54:39;;;;;;;9.45;8.65;;;23.40;70.30;;;;;;10455476;28;20108;-58
2021/07/12 21:59:40;;;;;;;9.25;8.45;;;23.40;70.30;;;;;;10455033;28;20079;-58
2021/07/12 22:04:41;;;;;;;8.75;8.05;;;23.40;70.40;;;;;;10455042;28;20025;-58
2021/07/12 22:09:46;;;;;;;9.55;8.77;;;23.40;70.30;;;;;;10454957;28;20048;-58
2021/07/12 22:14:47;;;;;;;9.60;8.70;;;23.40;70.30;;;;;;10456631;28;20041;-58
2021/07/12 22:19:48;;;;;;;9.48;8.68;;;23.40;70.30;;;;;;10468159;28;20029;-58
2021/07/12 22:24:49;;;;;;;9.75;8.95;;;23.40;70.20;;;;;;10464303;28;20041;-57
2021/07/12 22:29:49;;;;;;;9.85;9.05;;;23.40;70.30;;;;;;10462519;28;20037;-58
2021/07/12 22:34:50;;;;;;;10.75;9.68;;;23.40;70.20;;;;;;10462358;28;20037;-58
2021/07/12 22:39:51;;;;;;;9.77;8.98;;;23.40;70.30;;;;;;10461754;28;20171;-58
2021/07/12 22:44:51;;;;;;;9.68;8.82;;;23.40;70.20;;;;;;10462120;28;20485;-59
2021/07/12 22:49:52;;;;;;;9.38;8.52;;;23.40;70.20;;;;;;10443656;28;20067;-58
2021/07/12 22:54:54;;;;;;;9.52;8.65;;;23.40;70.20;;;;;;10461422;28;20056;-58
2021/07/12 22:59:55;;;;;;;10.00;9.20;;;23.30;70.10;;;;;;10460924;28;20036;-58
2021/07/12 23:04:55;;;;;;;9.27;8.48;;;23.30;70.20;;;;;;10461627;28;20452;-58
2021/07/12 23:09:56;;;;;;;9.27;8.48;;;23.30;70.20;;;;;;10460951;28;20107;-58
2021/07/12 23:14:57;;;;;;;9.63;8.82;;;23.30;70.10;;;;;;10460698;28;20029;-58
2021/07/12 23:19:57;;;;;;;10.02;9.13;;;23.30;70.20;;;;;;10467304;28;20419;-59
2021/07/12 23:24:58;;;;;;;9.60;8.80;;;23.30;70.70;;;;;;10460301;28;20167;-58
2021/07/12 23:30:01;;;;;;;9.60;8.85;;;23.30;70.10;;;;;;10459671;28;20693;-58
2021/07/12 23:35:05;;;;;;;10.18;9.27;;;23.30;70.10;;;;;;10459905;28;20738;-59
2021/07/12 23:40:10;;;;;;;9.63;8.82;;;23.30;70.10;;;;;;10459523;28;20041;-58
2021/07/12 23:45:12;;;;;;;10.07;9.27;;;23.30;70.00;;;;;;10460074;28;20032;-58
2021/07/12 23:50:13;;;;;;;9.90;8.98;;;23.30;70.10;;;;;;10459145;28;20830;-58
2021/07/12 23:55:14;;;;;;;9.80;8.90;;;23.30;70.10;;;;;;10459252;28;20052;-58
